sensor_id;sensor_type;location;lat;lon;timestamp;pressure;altitude;pressure_sealevel;temperature;humidity
75543;BME280;64129;53.508;10.476;2024-02-14T00:02:22;101215.34;;;4.68;80.15
75543;BME280;64129;53.508;10.476;2024-02-14T00:04:48;101215.56;;;4.76;80.45
75543;BME280;64129;53.508;10.476;2024-02-14T00:07:15;101210.34;;;4.76;80.22
75543;BME280;64129;53.508;10.476;2024-02-14T00:09:42;101218.22;;;4.79;80.52
75543;BME280;64129;53.508;10.476;2024-02-14T00:12:08;101208.50;;;4.72;81.61
75543;BME280;64129;53.508;10.476;2024-02-14T00:14:35;101209.44;;;4.75;81.46
75543;BME280;64129;53.508;10.476;2024-02-14T00:17:02;101211.13;;;4.72;81.49
75543;BME280;64129;53.508;10.476;2024-02-14T00:19:29;101204.78;;;4.62;80.78
75543;BME280;64129;53.508;10.476;2024-02-14T00:21:56;101199.03;;;4.74;81.67
75543;BME280;64129;53.508;10.476;2024-02-14T00:24:22;101197.88;;;4.63;81.14
75543;BME280;64129;53.508;10.476;2024-02-14T00:26:50;101199.66;;;4.65;83.05
75543;BME280;64129;53.508;10.476;2024-02-14T00:29:17;101201.47;;;4.68;82.48
75543;BME280;64129;53.508;10.476;2024-02-14T00:31:43;101207.66;;;4.73;81.95
75543;BME280;64129;53.508;10.476;2024-02-14T00:34:10;101200.78;;;4.75;81.92
75543;BME280;64129;53.508;10.476;2024-02-14T00:36:37;101207.31;;;4.59;81.85
75543;BME280;64129;53.508;10.476;2024-02-14T00:39:04;101205.19;;;4.44;81.24
75543;BME280;64129;53.508;10.476;2024-02-14T00:41:30;101193.19;;;4.49;82.21
75543;BME280;64129;53.508;10.476;2024-02-14T00:43:57;101199.25;;;4.50;81.91
75543;BME280;64129;53.508;10.476;2024-02-14T00:46:23;101193.31;;;4.54;82.36
75543;BME280;64129;53.508;10.476;2024-02-14T00:48:50;101187.38;;;4.59;83.30
75543;BME280;64129;53.508;10.476;2024-02-14T00:51:16;101187.47;;;4.31;81.23
75543;BME280;64129;53.508;10.476;2024-02-14T00:53:43;101190.69;;;4.54;82.32
75543;BME280;64129;53.508;10.476;2024-02-14T00:56:09;101193.03;;;4.43;81.99
75543;BME280;64129;53.508;10.476;2024-02-14T00:58:36;101185.50;;;4.54;83.73
75543;BME280;64129;53.508;10.476;2024-02-14T01:01:03;101184.38;;;4.44;83.24
75543;BME280;64129;53.508;10.476;2024-02-14T01:03:29;101181.16;;;4.53;82.44
75543;BME280;64129;53.508;10.476;2024-02-14T01:05:56;101173.91;;;4.41;81.86
75543;BME280;64129;53.508;10.476;2024-02-14T01:08:23;101176.34;;;4.35;82.34
75543;BME280;64129;53.508;10.476;2024-02-14T01:10:49;101184.56;;;4.52;82.98
75543;BME280;64129;53.508;10.476;2024-02-14T01:13:18;101180.66;;;4.34;82.20
75543;BME280;64129;53.508;10.476;2024-02-14T01:15:45;101178.81;;;4.30;82.34
75543;BME280;64129;53.508;10.476;2024-02-14T01:18:11;101181.66;;;4.40;81.32
75543;BME280;64129;53.508;10.476;2024-02-14T01:20:41;101179.81;;;4.35;81.24
75543;BME280;64129;53.508;10.476;2024-02-14T01:23:08;101173.91;;;4.43;82.95
75543;BME280;64129;53.508;10.476;2024-02-14T01:25:34;101172.88;;;4.36;82.68
75543;BME280;64129;53.508;10.476;2024-02-14T01:28:01;101165.94;;;4.35;83.11
75543;BME280;64129;53.508;10.476;2024-02-14T01:30:27;101161.16;;;4.50;84.29
75543;BME280;64129;53.508;10.476;2024-02-14T01:32:54;101167.56;;;4.31;81.92
75543;BME280;64129;53.508;10.476;2024-02-14T01:35:20;101164.94;;;4.30;81.95
75543;BME280;64129;53.508;10.476;2024-02-14T01:37:47;101160.94;;;4.43;82.52
75543;BME280;64129;53.508;10.476;2024-02-14T01:40:14;101165.25;;;4.42;83.62
75543;BME280;64129;53.508;10.476;2024-02-14T01:42:41;101159.00;;;4.34;81.96
75543;BME280;64129;53.508;10.476;2024-02-14T01:45:07;101147.13;;;4.44;83.58
75543;BME280;64129;53.508;10.476;2024-02-14T01:47:34;101142.72;;;4.41;83.78
75543;BME280;64129;53.508;10.476;2024-02-14T01:50:01;101148.06;;;4.47;84.05
75543;BME280;64129;53.508;10.476;2024-02-14T01:52:28;101145.47;;;4.47;84.16
75543;BME280;64129;53.508;10.476;2024-02-14T01:54:54;101149.59;;;4.39;84.88
75543;BME280;64129;53.508;10.476;2024-02-14T01:57:21;101146.03;;;4.35;84.58
75543;BME280;64129;53.508;10.476;2024-02-14T01:59:49;101142.56;;;4.35;85.18
75543;BME280;64129;53.508;10.476;2024-02-14T02:02:16;101143.22;;;4.28;85.53
75543;BME280;64129;53.508;10.476;2024-02-14T02:04:43;101137.97;;;4.25;86.80
75543;BME280;64129;53.508;10.476;2024-02-14T02:07:09;101122.63;;;4.35;86.91
75543;BME280;64129;53.508;10.476;2024-02-14T02:09:36;101124.59;;;4.44;86.59
75543;BME280;64129;53.508;10.476;2024-02-14T02:12:02;101123.38;;;4.30;86.45
75543;BME280;64129;53.508;10.476;2024-02-14T02:14:33;101126.03;;;4.33;87.33
75543;BME280;64129;53.508;10.476;2024-02-14T02:16:59;101124.63;;;4.13;87.92
75543;BME280;64129;53.508;10.476;2024-02-14T02:19:26;101122.53;;;4.31;87.67
75543;BME280;64129;53.508;10.476;2024-02-14T02:21:53;101130.22;;;3.96;90.24
75543;BME280;64129;53.508;10.476;2024-02-14T02:24:19;101125.38;;;4.08;89.43
75543;BME280;64129;53.508;10.476;2024-02-14T02:26:46;101114.69;;;3.98;89.55
75543;BME280;64129;53.508;10.476;2024-02-14T02:29:13;101115.09;;;4.13;89.27
75543;BME280;64129;53.508;10.476;2024-02-14T02:31:41;101102.47;;;4.25;89.90
75543;BME280;64129;53.508;10.476;2024-02-14T02:34:08;101113.50;;;4.18;89.53
75543;BME280;64129;53.508;10.476;2024-02-14T02:36:37;101099.38;;;4.07;90.57
75543;BME280;64129;53.508;10.476;2024-02-14T02:39:04;101101.00;;;4.03;90.88
75543;BME280;64129;53.508;10.476;2024-02-14T02:41:31;101103.75;;;4.09;90.17
75543;BME280;64129;53.508;10.476;2024-02-14T02:44:00;101105.47;;;4.09;90.05
75543;BME280;64129;53.508;10.476;2024-02-14T02:46:28;101097.56;;;4.04;90.53
75543;BME280;64129;53.508;10.476;2024-02-14T02:48:56;101092.47;;;4.09;90.36
75543;BME280;64129;53.508;10.476;2024-02-14T02:51:24;101093.22;;;4.05;91.26
75543;BME280;64129;53.508;10.476;2024-02-14T02:53:50;101094.91;;;4.01;90.98
75543;BME280;64129;53.508;10.476;2024-02-14T02:56:20;101085.69;;;4.14;90.70
75543;BME280;64129;53.508;10.476;2024-02-14T02:58:48;101083.41;;;4.25;89.79
75543;BME280;64129;53.508;10.476;2024-02-14T03:01:15;101075.38;;;4.16;90.66
75543;BME280;64129;53.508;10.476;2024-02-14T03:03:41;101071.19;;;4.22;89.96
75543;BME280;64129;53.508;10.476;2024-02-14T03:06:09;101066.47;;;4.07;91.49
75543;BME280;64129;53.508;10.476;2024-02-14T03:08:35;101062.44;;;4.19;90.39
75543;BME280;64129;53.508;10.476;2024-02-14T03:11:04;101067.38;;;4.09;90.97
75543;BME280;64129;53.508;10.476;2024-02-14T03:13:32;101071.88;;;4.15;91.47
75543;BME280;64129;53.508;10.476;2024-02-14T03:15:59;101067.00;;;4.27;90.51
75543;BME280;64129;53.508;10.476;2024-02-14T03:18:25;101060.47;;;4.10;91.99
75543;BME280;64129;53.508;10.476;2024-02-14T03:20:52;101058.69;;;4.07;92.50
75543;BME280;64129;53.508;10.476;2024-02-14T03:23:20;101054.34;;;4.06;92.11
75543;BME280;64129;53.508;10.476;2024-02-14T03:25:46;101045.06;;;4.16;92.33
75543;BME280;64129;53.508;10.476;2024-02-14T03:28:13;101047.69;;;4.18;92.27
75543;BME280;64129;53.508;10.476;2024-02-14T03:30:39;101044.22;;;4.17;92.11
75543;BME280;64129;53.508;10.476;2024-02-14T03:33:06;101042.47;;;4.16;92.09
75543;BME280;64129;53.508;10.476;2024-02-14T03:35:34;101043.00;;;4.04;92.11
75543;BME280;64129;53.508;10.476;2024-02-14T03:38:01;101039.75;;;4.12;91.84
75543;BME280;64129;53.508;10.476;2024-02-14T03:40:28;101046.53;;;4.06;92.40
75543;BME280;64129;53.508;10.476;2024-02-14T03:42:56;101048.41;;;4.12;92.30
75543;BME280;64129;53.508;10.476;2024-02-14T03:45:23;101042.97;;;4.03;92.63
75543;BME280;64129;53.508;10.476;2024-02-14T03:47:50;101036.34;;;4.14;92.56
75543;BME280;64129;53.508;10.476;2024-02-14T03:50:16;101041.53;;;4.14;91.56
75543;BME280;64129;53.508;10.476;2024-02-14T03:52:43;101041.84;;;4.26;91.47
75543;BME280;64129;53.508;10.476;2024-02-14T03:55:10;101028.50;;;4.13;92.14
75543;BME280;64129;53.508;10.476;2024-02-14T03:57:40;101031.13;;;4.14;92.38
75543;BME280;64129;53.508;10.476;2024-02-14T04:00:07;101020.94;;;4.20;92.34
75543;BME280;64129;53.508;10.476;2024-02-14T04:02:39;101027.00;;;4.21;92.42
75543;BME280;64129;53.508;10.476;2024-02-14T04:05:07;101022.34;;;4.09;93.38
75543;BME280;64129;53.508;10.476;2024-02-14T04:07:33;101029.53;;;4.19;92.13
75543;BME280;64129;53.508;10.476;2024-02-14T04:10:00;101021.59;;;4.13;92.97
75543;BME280;64129;53.508;10.476;2024-02-14T04:12:27;101020.75;;;4.14;92.25
75543;BME280;64129;53.508;10.476;2024-02-14T04:14:53;101027.66;;;4.14;92.34
75543;BME280;64129;53.508;10.476;2024-02-14T04:17:20;101024.34;;;4.19;92.63
75543;BME280;64129;53.508;10.476;2024-02-14T04:19:47;101017.09;;;4.06;93.84
75543;BME280;64129;53.508;10.476;2024-02-14T04:22:13;101016.31;;;4.10;92.83
75543;BME280;64129;53.508;10.476;2024-02-14T04:24:40;101012.16;;;4.17;92.59
75543;BME280;64129;53.508;10.476;2024-02-14T04:27:06;101007.88;;;4.19;93.29
75543;BME280;64129;53.508;10.476;2024-02-14T04:29:33;101006.03;;;4.15;92.83
75543;BME280;64129;53.508;10.476;2024-02-14T04:32:00;101005.16;;;4.14;93.82
75543;BME280;64129;53.508;10.476;2024-02-14T04:34:27;101002.63;;;4.16;92.89
75543;BME280;64129;53.508;10.476;2024-02-14T04:36:54;100996.63;;;4.18;92.88
75543;BME280;64129;53.508;10.476;2024-02-14T04:39:21;100993.13;;;4.16;93.19
75543;BME280;64129;53.508;10.476;2024-02-14T04:41:47;100993.28;;;4.24;92.90
75543;BME280;64129;53.508;10.476;2024-02-14T04:44:18;100995.75;;;4.18;93.34
75543;BME280;64129;53.508;10.476;2024-02-14T04:46:45;100991.47;;;4.20;92.68
75543;BME280;64129;53.508;10.476;2024-02-14T04:49:11;100991.41;;;4.18;93.10
75543;BME280;64129;53.508;10.476;2024-02-14T04:51:38;100995.94;;;4.25;92.87
75543;BME280;64129;53.508;10.476;2024-02-14T04:54:05;100985.53;;;4.25;92.85
75543;BME280;64129;53.508;10.476;2024-02-14T04:56:32;100992.47;;;4.25;93.39
75543;BME280;64129;53.508;10.476;2024-02-14T04:58:58;101000.25;;;4.25;93.20
75543;BME280;64129;53.508;10.476;2024-02-14T05:01:25;100990.78;;;4.28;93.43
75543;BME280;64129;53.508;10.476;2024-02-14T05:03:51;100982.06;;;4.25;93.20
75543;BME280;64129;53.508;10.476;2024-02-14T05:06:18;100980.50;;;4.33;93.07
75543;BME280;64129;53.508;10.476;2024-02-14T05:08:45;100976.94;;;4.28;92.86
75543;BME280;64129;53.508;10.476;2024-02-14T05:11:11;100971.91;;;4.34;93.42
75543;BME280;64129;53.508;10.476;2024-02-14T05:13:38;100974.34;;;4.28;93.77
75543;BME280;64129;53.508;10.476;2024-02-14T05:16:07;100973.59;;;4.33;93.42
75543;BME280;64129;53.508;10.476;2024-02-14T05:18:37;100980.25;;;4.22;94.70
75543;BME280;64129;53.508;10.476;2024-02-14T05:21:06;100979.38;;;4.20;94.18
75543;BME280;64129;53.508;10.476;2024-02-14T05:23:34;100975.31;;;4.33;93.57
75543;BME280;64129;53.508;10.476;2024-02-14T05:26:04;100968.22;;;4.26;94.30
75543;BME280;64129;53.508;10.476;2024-02-14T05:28:31;100964.13;;;4.35;93.51
75543;BME280;64129;53.508;10.476;2024-02-14T05:30:59;100967.53;;;4.33;94.79
75543;BME280;64129;53.508;10.476;2024-02-14T05:33:26;100957.97;;;4.32;94.88
75543;BME280;64129;53.508;10.476;2024-02-14T05:35:52;100951.16;;;4.37;94.09
75543;BME280;64129;53.508;10.476;2024-02-14T05:38:19;100958.97;;;4.37;94.89
75543;BME280;64129;53.508;10.476;2024-02-14T05:40:46;100957.97;;;4.32;94.90
75543;BME280;64129;53.508;10.476;2024-02-14T05:43:13;100954.59;;;4.34;95.39
75543;BME280;64129;53.508;10.476;2024-02-14T05:45:40;100950.16;;;4.30;95.03
75543;BME280;64129;53.508;10.476;2024-02-14T05:48:07;100950.19;;;4.32;95.00
75543;BME280;64129;53.508;10.476;2024-02-14T05:50:34;100941.59;;;4.34;94.85
75543;BME280;64129;53.508;10.476;2024-02-14T05:53:01;100940.72;;;4.34;95.72
75543;BME280;64129;53.508;10.476;2024-02-14T05:55:27;100940.00;;;4.41;95.29
75543;BME280;64129;53.508;10.476;2024-02-14T05:57:54;100943.66;;;4.48;94.88
75543;BME280;64129;53.508;10.476;2024-02-14T06:00:21;100943.31;;;4.34;95.54
75543;BME280;64129;53.508;10.476;2024-02-14T06:02:49;100947.06;;;4.47;95.29
75543;BME280;64129;53.508;10.476;2024-02-14T06:05:16;100934.78;;;4.40;95.80
75543;BME280;64129;53.508;10.476;2024-02-14T06:07:43;100933.19;;;4.46;95.04
75543;BME280;64129;53.508;10.476;2024-02-14T06:10:13;100929.03;;;4.53;94.26
75543;BME280;64129;53.508;10.476;2024-02-14T06:12:40;100922.84;;;4.48;95.75
75543;BME280;64129;53.508;10.476;2024-02-14T06:15:07;100922.03;;;4.50;95.29
75543;BME280;64129;53.508;10.476;2024-02-14T06:17:34;100935.91;;;4.51;95.22
75543;BME280;64129;53.508;10.476;2024-02-14T06:20:01;100935.94;;;4.52;96.16
75543;BME280;64129;53.508;10.476;2024-02-14T06:22:32;100938.66;;;4.57;95.80
75543;BME280;64129;53.508;10.476;2024-02-14T06:25:00;100930.91;;;4.60;94.38
75543;BME280;64129;53.508;10.476;2024-02-14T06:27:26;100928.19;;;4.55;95.98
75543;BME280;64129;53.508;10.476;2024-02-14T06:29:54;100926.56;;;4.59;95.50
75543;BME280;64129;53.508;10.476;2024-02-14T06:32:21;100934.91;;;4.44;96.77
75543;BME280;64129;53.508;10.476;2024-02-14T06:34:47;100929.94;;;4.55;96.58
75543;BME280;64129;53.508;10.476;2024-02-14T06:37:14;100925.69;;;4.58;96.09
75543;BME280;64129;53.508;10.476;2024-02-14T06:39:41;100927.44;;;4.59;96.43
75543;BME280;64129;53.508;10.476;2024-02-14T06:42:07;100933.59;;;4.63;95.66
75543;BME280;64129;53.508;10.476;2024-02-14T06:44:34;100927.50;;;4.63;95.09
75543;BME280;64129;53.508;10.476;2024-02-14T06:47:01;100929.28;;;4.65;95.97
75543;BME280;64129;53.508;10.476;2024-02-14T06:49:28;100930.06;;;4.61;96.03
75543;BME280;64129;53.508;10.476;2024-02-14T06:51:54;100931.94;;;4.67;96.61
75543;BME280;64129;53.508;10.476;2024-02-14T06:54:21;100930.25;;;4.70;95.61
75543;BME280;64129;53.508;10.476;2024-02-14T06:56:47;100931.19;;;4.72;95.29
75543;BME280;64129;53.508;10.476;2024-02-14T06:59:14;100932.94;;;4.73;96.50
75543;BME280;64129;53.508;10.476;2024-02-14T07:01:41;100924.19;;;4.70;96.15
75543;BME280;64129;53.508;10.476;2024-02-14T07:04:08;100938.00;;;4.67;96.23
75543;BME280;64129;53.508;10.476;2024-02-14T07:06:36;100939.09;;;4.77;96.75
75543;BME280;64129;53.508;10.476;2024-02-14T07:09:02;100934.78;;;4.79;96.46
75543;BME280;64129;53.508;10.476;2024-02-14T07:11:29;100932.22;;;4.80;96.20
75543;BME280;64129;53.508;10.476;2024-02-14T07:13:55;100931.31;;;4.80;96.02
75543;BME280;64129;53.508;10.476;2024-02-14T07:16:22;100923.63;;;4.84;95.79
75543;BME280;64129;53.508;10.476;2024-02-14T07:18:49;100933.97;;;4.81;96.89
75543;BME280;64129;53.508;10.476;2024-02-14T07:21:16;100934.94;;;4.85;95.54
75543;BME280;64129;53.508;10.476;2024-02-14T07:23:43;100936.69;;;4.86;96.18
75543;BME280;64129;53.508;10.476;2024-02-14T07:26:10;100935.03;;;4.90;95.65
75543;BME280;64129;53.508;10.476;2024-02-14T07:28:36;100934.03;;;4.84;96.00
75543;BME280;64129;53.508;10.476;2024-02-14T07:31:03;100926.41;;;4.92;96.33
75543;BME280;64129;53.508;10.476;2024-02-14T07:33:30;100929.78;;;4.88;96.28
75543;BME280;64129;53.508;10.476;2024-02-14T07:35:57;100933.22;;;4.87;97.82
75543;BME280;64129;53.508;10.476;2024-02-14T07:38:23;100934.09;;;4.86;97.22
75543;BME280;64129;53.508;10.476;2024-02-14T07:40:51;100936.72;;;4.89;98.20
75543;BME280;64129;53.508;10.476;2024-02-14T07:43:18;100930.81;;;4.95;96.89
75543;BME280;64129;53.508;10.476;2024-02-14T07:45:44;100929.28;;;5.04;95.64
75543;BME280;64129;53.508;10.476;2024-02-14T07:48:11;100926.66;;;5.04;95.51
75543;BME280;64129;53.508;10.476;2024-02-14T07:50:38;100925.72;;;5.01;96.44
75543;BME280;64129;53.508;10.476;2024-02-14T07:53:04;100917.84;;;4.98;97.26
75543;BME280;64129;53.508;10.476;2024-02-14T07:55:32;100927.75;;;5.16;96.30
75543;BME280;64129;53.508;10.476;2024-02-14T07:57:59;100923.31;;;5.10;96.75
75543;BME280;64129;53.508;10.476;2024-02-14T08:00:26;100920.88;;;5.19;96.49
75543;BME280;64129;53.508;10.476;2024-02-14T08:02:53;100925.31;;;5.25;95.63
75543;BME280;64129;53.508;10.476;2024-02-14T08:05:19;100913.88;;;5.15;96.53
75543;BME280;64129;53.508;10.476;2024-02-14T08:07:46;100919.19;;;5.21;96.55
75543;BME280;64129;53.508;10.476;2024-02-14T08:10:13;100916.38;;;5.12;97.69
75543;BME280;64129;53.508;10.476;2024-02-14T08:12:40;100920.03;;;5.20;97.42
75543;BME280;64129;53.508;10.476;2024-02-14T08:15:06;100927.84;;;5.20;97.12
75543;BME280;64129;53.508;10.476;2024-02-14T08:17:33;100919.25;;;5.26;97.24
75543;BME280;64129;53.508;10.476;2024-02-14T08:20:00;100912.41;;;5.31;96.30
75543;BME280;64129;53.508;10.476;2024-02-14T08:22:26;100912.22;;;5.19;97.24
75543;BME280;64129;53.508;10.476;2024-02-14T08:24:53;100916.81;;;5.32;96.66
75543;BME280;64129;53.508;10.476;2024-02-14T08:27:20;100909.09;;;5.38;97.40
75543;BME280;64129;53.508;10.476;2024-02-14T08:29:47;100904.88;;;5.45;96.25
75543;BME280;64129;53.508;10.476;2024-02-14T08:32:13;100910.13;;;5.46;96.70
75543;BME280;64129;53.508;10.476;2024-02-14T08:34:40;100905.00;;;5.51;96.28
75543;BME280;64129;53.508;10.476;2024-02-14T08:37:06;100910.22;;;5.51;96.99
75543;BME280;64129;53.508;10.476;2024-02-14T08:39:34;100913.59;;;5.47;97.31
75543;BME280;64129;53.508;10.476;2024-02-14T08:42:01;100912.22;;;5.66;96.02
75543;BME280;64129;53.508;10.476;2024-02-14T08:44:35;100912.09;;;5.59;97.65
75543;BME280;64129;53.508;10.476;2024-02-14T08:47:01;100912.13;;;5.61;97.35
75543;BME280;64129;53.508;10.476;2024-02-14T08:49:28;100913.09;;;5.68;96.20
75543;BME280;64129;53.508;10.476;2024-02-14T08:51:54;100910.47;;;5.65;96.71
75543;BME280;64129;53.508;10.476;2024-02-14T08:54:21;100904.47;;;5.70;96.41
75543;BME280;64129;53.508;10.476;2024-02-14T08:56:49;100908.03;;;5.75;96.71
75543;BME280;64129;53.508;10.476;2024-02-14T08:59:16;100909.00;;;5.82;96.44
75543;BME280;64129;53.508;10.476;2024-02-14T09:01:42;100913.41;;;5.83;97.10
75543;BME280;64129;53.508;10.476;2024-02-14T09:04:09;100908.28;;;5.89;96.66
75543;BME280;64129;53.508;10.476;2024-02-14T09:06:36;100914.22;;;5.82;98.22
75543;BME280;64129;53.508;10.476;2024-02-14T09:09:03;100904.97;;;5.98;96.72
75543;BME280;64129;53.508;10.476;2024-02-14T09:11:30;100905.66;;;5.89;97.82
75543;BME280;64129;53.508;10.476;2024-02-14T09:13:58;100902.38;;;5.98;97.06
75543;BME280;64129;53.508;10.476;2024-02-14T09:16:33;100903.25;;;5.98;97.72
75543;BME280;64129;53.508;10.476;2024-02-14T09:19:00;100898.13;;;6.04;98.41
75543;BME280;64129;53.508;10.476;2024-02-14T09:21:31;100902.53;;;6.08;97.64
75543;BME280;64129;53.508;10.476;2024-02-14T09:23:59;100907.91;;;6.18;97.42
75543;BME280;64129;53.508;10.476;2024-02-14T09:26:26;100909.63;;;6.17;98.05
75543;BME280;64129;53.508;10.476;2024-02-14T09:28:54;100910.50;;;6.18;97.61
75543;BME280;64129;53.508;10.476;2024-02-14T09:31:21;100908.03;;;6.25;97.21
75543;BME280;64129;53.508;10.476;2024-02-14T09:33:47;100915.72;;;6.18;97.37
75543;BME280;64129;53.508;10.476;2024-02-14T09:36:15;100907.25;;;6.31;96.78
75543;BME280;64129;53.508;10.476;2024-02-14T09:38:42;100914.91;;;6.22;96.96
75543;BME280;64129;53.508;10.476;2024-02-14T09:41:22;100908.09;;;6.30;97.85
75543;BME280;64129;53.508;10.476;2024-02-14T09:43:49;100914.13;;;6.29;97.99
75543;BME280;64129;53.508;10.476;2024-02-14T09:46:17;100908.19;;;6.36;97.88
75543;BME280;64129;53.508;10.476;2024-02-14T09:48:44;100908.25;;;6.42;97.43
75543;BME280;64129;53.508;10.476;2024-02-14T09:51:12;100913.69;;;6.57;97.02
75543;BME280;64129;53.508;10.476;2024-02-14T09:53:40;100908.44;;;6.56;98.00
75543;BME280;64129;53.508;10.476;2024-02-14T09:56:09;100911.13;;;6.60;97.29
75543;BME280;64129;53.508;10.476;2024-02-14T09:58:36;100913.81;;;6.65;97.37
75543;BME280;64129;53.508;10.476;2024-02-14T10:01:04;100916.41;;;6.65;98.25
75543;BME280;64129;53.508;10.476;2024-02-14T10:03:33;100914.72;;;6.67;98.39
75543;BME280;64129;53.508;10.476;2024-02-14T10:06:01;100914.78;;;6.73;98.69
75543;BME280;64129;53.508;10.476;2024-02-14T10:08:28;100914.03;;;6.82;98.57
75543;BME280;64129;53.508;10.476;2024-02-14T10:10:56;100907.91;;;6.78;99.17
75543;BME280;64129;53.508;10.476;2024-02-14T10:13:26;100915.03;;;6.93;98.47
75543;BME280;64129;53.508;10.476;2024-02-14T10:15:53;100916.88;;;7.00;98.02
75543;BME280;64129;53.508;10.476;2024-02-14T10:18:21;100919.50;;;7.03;98.39
75543;BME280;64129;53.508;10.476;2024-02-14T10:20:58;100913.41;;;7.03;97.55
75543;BME280;64129;53.508;10.476;2024-02-14T10:23:26;100923.78;;;6.98;98.42
75543;BME280;64129;53.508;10.476;2024-02-14T10:25:54;100918.72;;;7.09;99.04
75543;BME280;64129;53.508;10.476;2024-02-14T10:28:22;100924.81;;;7.09;99.62
75543;BME280;64129;53.508;10.476;2024-02-14T10:30:54;100921.41;;;7.16;98.76
75543;BME280;64129;53.508;10.476;2024-02-14T10:33:21;100925.81;;;7.21;98.89
75543;BME280;64129;53.508;10.476;2024-02-14T10:35:50;100926.78;;;7.30;98.95
75543;BME280;64129;53.508;10.476;2024-02-14T10:38:18;100930.38;;;7.40;98.95
75543;BME280;64129;53.508;10.476;2024-02-14T10:40:47;100932.13;;;7.41;99.01
75543;BME280;64129;53.508;10.476;2024-02-14T10:43:14;100931.38;;;7.51;99.43
75543;BME280;64129;53.508;10.476;2024-02-14T10:45:40;100927.88;;;7.49;98.72
75543;BME280;64129;53.508;10.476;2024-02-14T10:48:12;100939.31;;;7.62;99.08
75543;BME280;64129;53.508;10.476;2024-02-14T10:50:41;100937.44;;;7.49;99.13
75543;BME280;64129;53.508;10.476;2024-02-14T10:53:13;100935.94;;;7.74;98.97
75543;BME280;64129;53.508;10.476;2024-02-14T10:55:41;100931.53;;;7.66;99.01
75543;BME280;64129;53.508;10.476;2024-02-14T10:58:11;100928.97;;;7.70;98.99
75543;BME280;64129;53.508;10.476;2024-02-14T11:00:40;100931.63;;;7.76;98.92
75543;BME280;64129;53.508;10.476;2024-02-14T11:03:08;100936.78;;;7.68;99.73
75543;BME280;64129;53.508;10.476;2024-02-14T11:05:45;100935.94;;;7.71;99.95
75543;BME280;64129;53.508;10.476;2024-02-14T11:08:21;100931.72;;;7.86;99.61
75543;BME280;64129;53.508;10.476;2024-02-14T11:10:58;100927.41;;;7.90;99.35
75543;BME280;64129;53.508;10.476;2024-02-14T11:13:28;100937.00;;;7.91;99.80
75543;BME280;64129;53.508;10.476;2024-02-14T11:16:00;100941.38;;;7.95;99.37
75543;BME280;64129;53.508;10.476;2024-02-14T11:18:28;100943.28;;;8.11;99.63
75543;BME280;64129;53.508;10.476;2024-02-14T11:20:56;100934.50;;;8.06;99.77
75543;BME280;64129;53.508;10.476;2024-02-14T11:23:24;100932.78;;;8.07;99.05
75543;BME280;64129;53.508;10.476;2024-02-14T11:25:51;100927.59;;;8.14;99.87
75543;BME280;64129;53.508;10.476;2024-02-14T11:28:19;100931.09;;;8.13;99.52
75543;BME280;64129;53.508;10.476;2024-02-14T11:30:50;100932.91;;;8.24;99.75
75543;BME280;64129;53.508;10.476;2024-02-14T11:33:18;100938.13;;;8.22;99.95
75543;BME280;64129;53.508;10.476;2024-02-14T11:35:49;100932.09;;;8.31;99.73
75543;BME280;64129;53.508;10.476;2024-02-14T11:38:24;100941.72;;;8.35;99.59
75543;BME280;64129;53.508;10.476;2024-02-14T11:40:54;100939.94;;;8.34;99.46
75543;BME280;64129;53.508;10.476;2024-02-14T11:43:24;100941.81;;;8.46;99.73
75543;BME280;64129;53.508;10.476;2024-02-14T11:45:51;100939.19;;;8.42;99.43
75543;BME280;64129;53.508;10.476;2024-02-14T11:48:19;100945.25;;;8.38;100.00
75543;BME280;64129;53.508;10.476;2024-02-14T11:50:47;100937.47;;;8.48;99.62
75543;BME280;64129;53.508;10.476;2024-02-14T11:53:14;100947.94;;;8.45;99.55
75543;BME280;64129;53.508;10.476;2024-02-14T11:55:43;100943.59;;;8.51;99.73
75543;BME280;64129;53.508;10.476;2024-02-14T11:58:10;100946.22;;;8.53;99.61
75543;BME280;64129;53.508;10.476;2024-02-14T12:00:38;100946.31;;;8.63;100.00
75543;BME280;64129;53.508;10.476;2024-02-14T12:03:07;100943.66;;;8.60;100.00
75543;BME280;64129;53.508;10.476;2024-02-14T12:05:36;100955.03;;;8.65;99.79
75543;BME280;64129;53.508;10.476;2024-02-14T12:08:06;100958.50;;;8.63;100.00
75543;BME280;64129;53.508;10.476;2024-02-14T12:10:35;100957.66;;;8.64;100.00
75543;BME280;64129;53.508;10.476;2024-02-14T12:13:08;100962.09;;;8.79;100.00
75543;BME280;64129;53.508;10.476;2024-02-14T12:15:39;100958.59;;;8.80;100.00
75543;BME280;64129;53.508;10.476;2024-02-14T12:18:05;100957.72;;;8.81;100.00
75543;BME280;64129;53.508;10.476;2024-02-14T12:20:32;100962.09;;;8.80;100.00
75543;BME280;64129;53.508;10.476;2024-02-14T12:22:59;100958.59;;;8.77;100.00
75543;BME280;64129;53.508;10.476;2024-02-14T12:25:26;100958.63;;;8.86;100.00
75543;BME280;64129;53.508;10.476;2024-02-14T12:27:53;100964.81;;;8.99;100.00
75543;BME280;64129;53.508;10.476;2024-02-14T12:30:19;100968.31;;;8.96;100.00
75543;BME280;64129;53.508;10.476;2024-02-14T12:32:46;100971.81;;;9.04;100.00
75543;BME280;64129;53.508;10.476;2024-02-14T12:35:13;100965.72;;;9.07;100.00
75543;BME280;64129;53.508;10.476;2024-02-14T12:37:39;100965.69;;;8.99;100.00
75543;BME280;64129;53.508;10.476;2024-02-14T12:40:06;100961.31;;;8.97;100.00
75543;BME280;64129;53.508;10.476;2024-02-14T12:42:33;100973.59;;;9.07;100.00
75543;BME280;64129;53.508;10.476;2024-02-14T12:45:00;100972.72;;;9.12;100.00
75543;BME280;64129;53.508;10.476;2024-02-14T12:47:27;100967.47;;;9.06;100.00
75543;BME280;64129;53.508;10.476;2024-02-14T12:49:58;100965.78;;;9.16;100.00
75543;BME280;64129;53.508;10.476;2024-02-14T12:52:25;100974.50;;;9.16;100.00